createdAt,value
2022-12-20T00:01:31.117Z,2.86
2022-12-20T00:04:02.261Z,3.26
2022-12-20T00:06:31.340Z,3.45
2022-12-20T00:09:00.431Z,3.55
2022-12-20T00:11:29.755Z,3.61
2022-12-20T00:13:57.537Z,3.58
2022-12-20T00:16:27.458Z,3.65
2022-12-20T00:18:57.238Z,3.54
2022-12-20T00:21:25.947Z,3.24
2022-12-20T00:23:55.413Z,3.37
2022-12-20T00:26:25.970Z,3.42
2022-12-20T00:28:54.079Z,3.48
2022-12-20T00:31:23.207Z,3.46
2022-12-20T00:33:52.649Z,3.52
2022-12-20T00:36:21.615Z,3.41
2022-12-20T00:38:51.263Z,3.47
2022-12-20T00:41:21.523Z,3.36
2022-12-20T00:43:49.892Z,3.48
2022-12-20T00:46:19.139Z,3.41
2022-12-20T00:48:46.754Z,3.48
2022-12-20T00:51:16.981Z,3.52
2022-12-20T00:53:45.401Z,3.70
2022-12-20T00:56:13.641Z,3.52
2022-12-20T00:58:44.134Z,3.27
2022-12-20T01:01:21.013Z,3.28
2022-12-20T01:03:49.151Z,3.34
2022-12-20T01:06:17.300Z,3.37
2022-12-20T01:08:45.341Z,3.52
2022-12-20T01:11:15.562Z,3.60
2022-12-20T01:13:47.153Z,3.47
2022-12-20T01:16:17.219Z,3.51
2022-12-20T01:18:45.645Z,3.61
2022-12-20T01:21:15.230Z,3.39
2022-12-20T01:23:43.439Z,3.48
2022-12-20T01:26:14.827Z,3.33
2022-12-20T01:28:45.935Z,3.52
2022-12-20T01:31:16.079Z,3.62
2022-12-20T01:33:44.589Z,3.63
2022-12-20T01:36:13.967Z,3.71
2022-12-20T01:38:41.917Z,3.82
2022-12-20T01:41:16.552Z,3.85
2022-12-20T01:43:51.941Z,3.78
2022-12-20T01:46:20.845Z,3.80
2022-12-20T01:48:53.461Z,3.83
2022-12-20T01:51:21.985Z,3.94
2022-12-20T01:53:55.697Z,4.05
2022-12-20T01:56:23.799Z,4.09
2022-12-20T01:58:55.514Z,4.03
2022-12-20T02:01:24.262Z,4.09
2022-12-20T02:03:54.921Z,4.13
2022-12-20T02:06:25.921Z,4.17
2022-12-20T02:08:57.971Z,4.10
2022-12-20T02:11:39.453Z,4.17
2022-12-20T02:14:20.085Z,4.27
2022-12-20T02:16:56.239Z,4.30
2022-12-20T02:19:43.135Z,4.25
2022-12-20T02:22:25.291Z,4.18
2022-12-20T02:25:14.831Z,4.14
2022-12-20T02:27:49.970Z,3.90
2022-12-20T02:30:20.852Z,3.83
2022-12-20T02:32:58.216Z,3.94
2022-12-20T02:35:29.656Z,3.90
2022-12-20T02:37:58.731Z,3.84
2022-12-20T02:40:30.575Z,3.90
2022-12-20T02:43:01.518Z,3.94
2022-12-20T02:45:33.929Z,3.73
2022-12-20T02:48:04.479Z,3.58
2022-12-20T02:50:37.434Z,3.70
2022-12-20T02:53:06.342Z,3.67
2022-12-20T02:55:42.247Z,3.63
2022-12-20T02:58:17.197Z,3.91
2022-12-20T03:00:49.979Z,3.93
2022-12-20T03:03:23.944Z,3.85
2022-12-20T03:05:53.594Z,3.75
2022-12-20T03:08:22.894Z,3.64
2022-12-20T03:10:50.712Z,3.67
2022-12-20T03:13:19.220Z,3.77
2022-12-20T03:15:48.223Z,3.71
2022-12-20T03:18:15.999Z,3.70
2022-12-20T03:20:44.075Z,3.75
2022-12-20T03:23:11.722Z,3.89
2022-12-20T03:25:39.440Z,3.95
2022-12-20T03:28:07.157Z,3.90
2022-12-20T03:30:35.067Z,4.09
2022-12-20T03:33:04.384Z,4.06
2022-12-20T03:35:32.003Z,4.17
2022-12-20T03:37:59.665Z,4.06
2022-12-20T03:40:28.724Z,4.12
2022-12-20T03:42:56.387Z,4.06
2022-12-20T03:45:23.943Z,4.14
2022-12-20T03:47:51.557Z,4.15
2022-12-20T03:50:20.556Z,3.96
2022-12-20T03:52:48.278Z,3.77
2022-12-20T03:55:16.090Z,3.83
2022-12-20T03:57:43.721Z,3.86
2022-12-20T04:00:12.799Z,3.97
2022-12-20T04:02:40.649Z,4.11
2022-12-20T04:05:09.146Z,4.19
2022-12-20T04:07:38.602Z,4.12
2022-12-20T04:10:07.809Z,4.10
2022-12-20T04:12:35.364Z,4.14
2022-12-20T04:15:02.991Z,4.23
2022-12-20T04:17:30.719Z,4.25
2022-12-20T04:19:58.295Z,4.30
2022-12-20T04:22:26.099Z,4.37
2022-12-20T04:24:55.265Z,4.34
2022-12-20T04:27:22.903Z,4.15
2022-12-20T04:29:50.446Z,4.31
2022-12-20T04:32:18.041Z,4.15
2022-12-20T04:34:45.572Z,4.00
2022-12-20T04:37:13.106Z,4.00
2022-12-20T04:39:40.777Z,4.08
2022-12-20T04:42:11.803Z,4.20
2022-12-20T04:44:39.386Z,3.99
2022-12-20T04:47:06.976Z,3.96
2022-12-20T04:49:34.562Z,3.76
2022-12-20T04:52:22.105Z,3.55
2022-12-20T04:54:48.824Z,3.77
2022-12-20T04:57:17.744Z,3.94
2022-12-20T04:59:45.324Z,3.84
2022-12-20T05:02:13.133Z,3.91
2022-12-20T05:04:40.754Z,4.05
2022-12-20T05:07:08.298Z,4.09
2022-12-20T05:09:35.915Z,3.99
2022-12-20T05:12:03.493Z,4.07
2022-12-20T05:14:32.513Z,4.02
2022-12-20T05:17:00.105Z,4.16
2022-12-20T05:19:27.717Z,4.16
2022-12-20T05:22:12.733Z,4.26
2022-12-20T05:24:58.131Z,4.15
2022-12-20T05:27:25.750Z,4.08
2022-12-20T05:29:56.803Z,4.13
2022-12-20T05:32:24.404Z,4.29
2022-12-20T05:34:52.045Z,4.32
2022-12-20T05:37:19.624Z,4.31
2022-12-20T05:39:47.193Z,4.45
2022-12-20T05:42:14.832Z,4.17
2022-12-20T05:44:42.422Z,3.94
2022-12-20T05:47:11.424Z,4.00
2022-12-20T05:49:39.190Z,4.13
2022-12-20T05:52:06.755Z,4.28
2022-12-20T05:54:34.764Z,4.43
2022-12-20T05:57:02.316Z,4.42
2022-12-20T05:59:29.900Z,4.06
2022-12-20T06:01:57.681Z,4.09
2022-12-20T06:04:26.854Z,4.04
2022-12-20T06:06:54.429Z,3.85
2022-12-20T06:09:22.522Z,3.84
2022-12-20T06:11:50.118Z,3.89
2022-12-20T06:14:17.701Z,4.10
2022-12-20T06:16:45.343Z,3.97
2022-12-20T06:19:17.686Z,4.07
2022-12-20T06:21:50.241Z,3.86
2022-12-20T06:24:18.721Z,3.87
2022-12-20T06:26:46.385Z,3.92
2022-12-20T06:29:17.343Z,3.83
2022-12-20T06:31:45.179Z,3.72
2022-12-20T06:34:12.935Z,3.93
2022-12-20T06:36:40.586Z,3.87
2022-12-20T06:39:10.191Z,3.94
2022-12-20T06:41:37.991Z,3.96
2022-12-20T06:44:05.959Z,3.72
2022-12-20T06:46:33.690Z,3.85
2022-12-20T06:49:01.320Z,3.71
2022-12-20T06:51:29.044Z,3.83
2022-12-20T06:53:59.096Z,3.87
2022-12-20T06:56:28.139Z,4.03
2022-12-20T06:58:55.763Z,4.17
2022-12-20T07:01:23.480Z,4.14
2022-12-20T07:03:52.489Z,4.32
2022-12-20T07:06:20.308Z,4.37
2022-12-20T07:08:48.071Z,4.20
2022-12-20T07:11:15.835Z,4.42
2022-12-20T07:13:44.737Z,4.29
2022-12-20T07:16:12.529Z,4.49
2022-12-20T07:18:40.259Z,4.50
2022-12-20T07:21:08.521Z,4.52
2022-12-20T07:23:36.175Z,4.52
2022-12-20T07:26:05.979Z,4.48
2022-12-20T07:28:33.587Z,4.33
2022-12-20T07:31:03.915Z,4.58
2022-12-20T07:33:32.990Z,4.49
2022-12-20T07:36:03.913Z,4.47
2022-12-20T07:38:31.742Z,4.62
2022-12-20T07:41:00.585Z,4.81
2022-12-20T07:43:28.597Z,4.81
2022-12-20T07:45:57.350Z,4.91
2022-12-20T07:48:26.290Z,4.79
2022-12-20T07:50:58.357Z,4.67
2022-12-20T07:53:28.150Z,4.82
2022-12-20T07:55:58.178Z,5.03
2022-12-20T07:58:26.804Z,5.06
2022-12-20T08:00:54.703Z,5.09
2022-12-20T08:03:26.398Z,5.11
2022-12-20T08:06:03.732Z,5.17
2022-12-20T08:08:33.616Z,5.20
2022-12-20T08:11:02.374Z,5.25
2022-12-20T08:13:30.150Z,5.18
2022-12-20T08:15:57.951Z,5.15
2022-12-20T08:18:25.700Z,5.12
2022-12-20T08:20:54.675Z,5.32
2022-12-20T08:23:22.209Z,5.46
2022-12-20T08:25:50.224Z,5.33
2022-12-20T08:28:17.788Z,5.33
2022-12-20T08:30:45.416Z,5.19
2022-12-20T08:33:13.193Z,5.38
2022-12-20T08:35:41.164Z,5.57
2022-12-20T08:38:10.163Z,5.65
2022-12-20T08:40:39.718Z,5.93
2022-12-20T08:43:10.394Z,6.01
2022-12-20T08:45:40.283Z,5.88
2022-12-20T08:48:08.235Z,6.07
2022-12-20T08:50:36.232Z,6.02
2022-12-20T08:53:03.954Z,5.99
2022-12-20T08:55:33.074Z,5.95
2022-12-20T08:58:00.710Z,5.67
2022-12-20T09:00:28.364Z,5.85
2022-12-20T09:02:56.181Z,5.62
2022-12-20T09:05:23.966Z,5.54
2022-12-20T09:07:51.606Z,5.55
2022-12-20T09:10:19.323Z,5.51
2022-12-20T09:12:48.208Z,5.74
2022-12-20T09:15:16.037Z,5.90
2022-12-20T09:17:43.681Z,6.21
2022-12-20T09:20:11.689Z,6.29
2022-12-20T09:22:39.790Z,6.48
2022-12-20T09:25:08.405Z,6.58
2022-12-20T09:27:36.008Z,6.53
2022-12-20T09:30:05.589Z,6.61
2022-12-20T09:32:33.241Z,6.70
2022-12-20T09:35:02.667Z,6.50
2022-12-20T09:37:31.075Z,6.61
2022-12-20T09:39:59.293Z,6.58
2022-12-20T09:42:28.850Z,6.40
2022-12-20T09:45:02.624Z,6.56
2022-12-20T09:51:04.166Z,6.53
2022-12-20T09:53:44.319Z,6.49
2022-12-20T09:56:15.242Z,6.76
2022-12-20T09:59:05.004Z,6.82
2022-12-20T10:01:39.586Z,6.99
2022-12-20T10:04:19.302Z,6.85
2022-12-20T10:06:59.550Z,6.97
2022-12-20T10:09:43.930Z,7.08
2022-12-20T10:12:23.278Z,6.91
2022-12-20T10:15:14.131Z,7.26
2022-12-20T10:17:51.414Z,7.36
2022-12-20T10:20:30.672Z,7.25
2022-12-20T10:23:02.680Z,7.31
2022-12-20T10:25:32.015Z,7.16
2022-12-20T10:28:02.560Z,6.95
2022-12-20T10:30:30.516Z,6.78
2022-12-20T10:32:59.157Z,6.78
2022-12-20T10:35:31.394Z,6.65
2022-12-20T10:38:07.453Z,6.73
2022-12-20T10:41:09.899Z,6.73
2022-12-20T10:43:26.608Z,6.43
2022-12-20T10:45:59.669Z,6.76
2022-12-20T10:48:30.857Z,6.80
2022-12-20T10:51:02.420Z,6.94
2022-12-20T10:53:31.007Z,6.88
2022-12-20T10:56:17.742Z,6.92
2022-12-20T10:58:53.922Z,7.00
2022-12-20T11:01:23.830Z,7.21
2022-12-20T11:03:58.117Z,7.31
2022-12-20T11:06:32.641Z,7.33
2022-12-20T11:09:25.691Z,7.31
2022-12-20T11:12:16.335Z,7.42
2022-12-20T11:14:46.111Z,7.49
2022-12-20T11:17:27.831Z,7.68
2022-12-20T11:20:09.568Z,7.49
2022-12-20T11:22:51.017Z,7.52
2022-12-20T11:25:36.007Z,7.53
2022-12-20T11:28:19.286Z,7.46
2022-12-20T11:30:58.745Z,7.61
2022-12-20T11:33:46.873Z,7.58
2022-12-20T11:36:25.579Z,7.65
2022-12-20T11:39:03.444Z,7.70
2022-12-20T11:41:37.834Z,7.66
2022-12-20T11:44:25.468Z,7.78
2022-12-20T11:47:18.146Z,7.68
2022-12-20T11:50:03.269Z,7.95
2022-12-20T11:52:36.929Z,7.66
2022-12-20T11:55:17.808Z,7.62
2022-12-20T11:58:16.745Z,7.03
2022-12-20T12:00:41.967Z,6.88
2022-12-20T12:03:16.331Z,6.85
2022-12-20T12:05:47.749Z,6.95
2022-12-20T12:08:21.445Z,6.94
2022-12-20T12:10:59.307Z,6.89
2022-12-20T12:13:29.436Z,6.96
2022-12-20T12:16:03.265Z,6.97
2022-12-20T12:18:32.472Z,6.72
2022-12-20T12:21:09.835Z,6.58
2022-12-20T12:23:49.234Z,6.74
2022-12-20T12:26:23.822Z,6.58
2022-12-20T12:28:55.707Z,6.58
2022-12-20T12:31:31.129Z,6.90
2022-12-20T12:34:09.756Z,6.85
2022-12-20T12:36:56.876Z,7.14
2022-12-20T12:39:52.035Z,7.15
2022-12-20T12:43:03.578Z,7.07
2022-12-20T12:45:36.058Z,7.19
2022-12-20T12:48:09.364Z,7.23
2022-12-20T12:50:39.990Z,7.01
2022-12-20T12:53:14.308Z,6.86
2022-12-20T12:55:44.815Z,7.03
2022-12-20T12:58:35.537Z,7.44
2022-12-20T13:01:08.210Z,7.63
2022-12-20T13:03:46.105Z,7.45
2022-12-20T13:07:06.934Z,6.83
2022-12-20T13:09:40.158Z,7.22
2022-12-20T13:12:51.251Z,7.17
2022-12-20T13:16:06.540Z,7.36
2022-12-20T13:18:36.933Z,7.50
2022-12-20T13:21:19.753Z,7.73
2022-12-20T13:23:47.725Z,7.64
2022-12-20T13:26:50.607Z,7.83
2022-12-20T13:29:33.652Z,7.93
2022-12-20T13:32:02.971Z,7.75
2022-12-20T13:34:37.818Z,7.60
2022-12-20T13:37:29.200Z,7.38
2022-12-20T13:39:57.729Z,7.27
2022-12-20T13:42:38.067Z,7.39
2022-12-20T13:45:12.443Z,7.61
2022-12-20T13:47:47.746Z,7.51
2022-12-20T13:50:29.422Z,7.72
2022-12-20T13:52:57.567Z,7.87
2022-12-20T13:55:33.096Z,7.87
2022-12-20T13:58:06.278Z,7.77
2022-12-20T14:00:35.093Z,7.88
2022-12-20T14:03:04.310Z,7.94
2022-12-20T14:05:38.960Z,8.05
2022-12-20T14:08:09.874Z,8.04
2022-12-20T14:10:37.952Z,7.93
2022-12-20T14:13:20.810Z,7.85
2022-12-20T14:15:48.581Z,7.82
2022-12-20T14:18:20.922Z,7.60
2022-12-20T14:20:51.906Z,7.43
2022-12-20T14:23:23.496Z,7.33
2022-12-20T14:25:53.889Z,7.30
2022-12-20T14:28:32.589Z,7.48
2022-12-20T14:31:02.047Z,7.42
2022-12-20T14:33:36.854Z,7.39
2022-12-20T14:36:19.018Z,7.40
2022-12-20T14:38:56.089Z,7.33
2022-12-20T14:41:35.614Z,7.30
2022-12-20T14:44:23.612Z,7.36
2022-12-20T14:46:55.604Z,7.29
2022-12-20T14:49:30.420Z,7.29
2022-12-20T14:52:08.622Z,7.29
2022-12-20T14:55:07.278Z,7.14
2022-12-20T14:57:29.300Z,7.15
2022-12-20T15:00:11.503Z,7.02
2022-12-20T15:02:42.964Z,6.97
2022-12-20T15:05:45.361Z,6.92
2022-12-20T15:08:14.853Z,6.84
2022-12-20T15:10:43.169Z,6.83
2022-12-20T15:13:14.497Z,6.79
2022-12-20T15:15:42.578Z,6.95
2022-12-20T15:18:15.060Z,6.75
2022-12-20T15:20:45.742Z,6.78
2022-12-20T15:23:17.963Z,6.88
2022-12-20T15:25:46.088Z,6.88
2022-12-20T15:28:19.591Z,6.97
2022-12-20T15:30:48.330Z,6.97
2022-12-20T15:33:18.411Z,6.85
2022-12-20T15:35:50.083Z,6.73
2022-12-20T15:38:25.526Z,6.58
2022-12-20T15:41:06.064Z,6.49
2022-12-20T15:43:38.850Z,6.66
2022-12-20T15:46:06.952Z,6.28
2022-12-20T15:48:35.433Z,6.51
2022-12-20T15:51:15.328Z,6.37
2022-12-20T15:53:42.963Z,6.48
2022-12-20T15:56:18.096Z,6.32
2022-12-20T15:58:46.095Z,6.37
2022-12-20T16:01:21.225Z,6.34
2022-12-20T16:03:49.410Z,6.30
2022-12-20T16:06:20.834Z,6.33
2022-12-20T16:08:48.387Z,6.57
2022-12-20T16:11:22.450Z,6.37
2022-12-20T16:13:50.145Z,6.39
2022-12-20T16:16:19.457Z,6.47
2022-12-20T16:18:47.129Z,6.43
2022-12-20T16:21:19.631Z,6.42
2022-12-20T16:23:47.300Z,6.40
2022-12-20T16:26:16.125Z,6.48
2022-12-20T16:28:44.319Z,6.41
2022-12-20T16:31:22.579Z,6.52
2022-12-20T16:33:50.242Z,6.50
2022-12-20T16:36:23.783Z,6.51
2022-12-20T16:38:52.051Z,6.42
2022-12-20T16:41:22.455Z,6.37
2022-12-20T16:43:50.183Z,6.40
2022-12-20T16:46:20.632Z,6.42
2022-12-20T16:48:49.137Z,6.49
2022-12-20T16:51:27.398Z,6.60
2022-12-20T16:56:45.165Z,6.53
2022-12-20T16:59:21.976Z,6.50
2022-12-20T17:01:52.604Z,6.36
2022-12-20T17:04:21.134Z,6.41
2022-12-20T17:06:50.862Z,6.49
2022-12-20T17:12:10.763Z,6.59
2022-12-20T17:14:38.642Z,6.43
2022-12-20T17:17:08.895Z,6.40
2022-12-20T17:19:38.304Z,6.46
2022-12-20T17:22:23.268Z,6.43
2022-12-20T17:24:51.040Z,6.51
2022-12-20T17:27:19.042Z,6.50
2022-12-20T17:29:46.980Z,6.50
2022-12-20T17:32:26.387Z,6.44
2022-12-20T17:34:55.126Z,6.43
2022-12-20T17:37:24.997Z,6.31
2022-12-20T17:39:52.575Z,6.34
2022-12-20T17:42:27.073Z,6.49
2022-12-20T17:44:58.491Z,6.44
2022-12-20T17:47:26.199Z,6.56
2022-12-20T17:49:54.322Z,6.52
2022-12-20T17:52:22.638Z,6.60
2022-12-20T17:54:51.927Z,6.63
2022-12-20T17:57:19.501Z,6.63
2022-12-20T17:59:48.214Z,6.59
2022-12-20T18:02:24.122Z,6.55
2022-12-20T18:04:52.379Z,6.73
2022-12-20T18:07:20.374Z,6.73
2022-12-20T18:09:48.741Z,6.63
2022-12-20T18:12:18.413Z,6.57
2022-12-20T18:14:46.065Z,6.53
2022-12-20T18:17:13.679Z,6.57
2022-12-20T18:19:41.563Z,6.67
2022-12-20T18:22:09.127Z,6.47
2022-12-20T18:24:38.989Z,6.50
2022-12-20T18:27:06.743Z,6.64
2022-12-20T18:29:35.893Z,6.48
2022-12-20T18:32:03.553Z,6.28
2022-12-20T18:34:31.286Z,6.19
2022-12-20T18:36:58.823Z,6.45
2022-12-20T18:39:26.460Z,6.50
2022-12-20T18:41:53.997Z,6.42
2022-12-20T18:44:21.538Z,6.29
2022-12-20T18:46:50.685Z,6.38
2022-12-20T18:49:18.959Z,6.38
2022-12-20T18:51:46.533Z,6.43
2022-12-20T18:54:14.786Z,6.64
2022-12-20T18:56:42.382Z,6.56
2022-12-20T18:59:12.635Z,6.51
2022-12-20T19:01:43.192Z,6.76
2022-12-20T19:04:12.836Z,6.53
2022-12-20T19:06:40.970Z,6.58
2022-12-20T19:09:11.326Z,6.44
2022-12-20T19:11:39.215Z,6.51
2022-12-20T19:14:07.572Z,6.43
2022-12-20T19:16:43.479Z,6.29
2022-12-20T19:19:23.691Z,6.54
2022-12-20T19:21:53.911Z,6.54
2022-12-20T19:24:21.543Z,6.43
2022-12-20T19:26:49.090Z,6.40
2022-12-20T19:29:16.608Z,6.27
2022-12-20T19:31:44.531Z,6.13
2022-12-20T19:34:15.478Z,6.15
2022-12-20T19:36:44.899Z,6.12
2022-12-20T19:39:18.063Z,6.13
2022-12-20T19:42:05.923Z,6.28
2022-12-20T19:44:33.275Z,6.29
2022-12-20T19:47:07.201Z,6.30
2022-12-20T19:49:36.877Z,6.41
2022-12-20T19:52:05.703Z,6.22
2022-12-20T19:54:33.820Z,6.21
2022-12-20T19:57:01.524Z,6.28
2022-12-20T19:59:30.581Z,6.52
2022-12-20T20:01:58.278Z,6.27
2022-12-20T20:04:25.910Z,6.09
2022-12-20T20:06:56.272Z,6.14
2022-12-20T20:09:24.068Z,6.38
2022-12-20T20:11:51.677Z,6.29
2022-12-20T20:14:19.239Z,6.29
2022-12-20T20:16:46.871Z,6.29
2022-12-20T20:19:14.740Z,6.19
2022-12-20T20:21:42.713Z,6.24
2022-12-20T20:24:11.784Z,6.25
2022-12-20T20:26:40.254Z,6.11
2022-12-20T20:29:10.332Z,6.03
2022-12-20T20:31:38.647Z,6.02
2022-12-20T20:34:06.325Z,5.95
2022-12-20T20:36:33.989Z,5.91
2022-12-20T20:39:01.625Z,6.13
2022-12-20T20:41:31.608Z,5.89
2022-12-20T20:43:59.236Z,6.00
2022-12-20T20:46:26.908Z,5.93
2022-12-20T20:48:54.679Z,5.98
2022-12-20T20:51:22.469Z,6.06
2022-12-20T20:53:50.053Z,6.19
2022-12-20T20:56:17.651Z,6.24
2022-12-20T20:58:46.737Z,6.22
2022-12-20T21:01:14.412Z,6.44
2022-12-20T21:03:42.890Z,6.45
2022-12-20T21:08:58.487Z,6.38
2022-12-20T21:11:26.138Z,6.40
2022-12-20T21:13:56.052Z,6.23
2022-12-20T21:16:24.623Z,6.24
2022-12-20T21:18:52.846Z,6.26
2022-12-20T21:21:21.316Z,6.26
2022-12-20T21:23:49.791Z,6.17
2022-12-20T21:26:18.990Z,6.13
2022-12-20T21:28:46.693Z,6.28
2022-12-20T21:31:17.310Z,6.22
2022-12-20T21:33:46.100Z,6.17
2022-12-20T21:36:16.151Z,6.08
2022-12-20T21:38:47.597Z,6.12
2022-12-20T21:41:15.181Z,5.90
2022-12-20T21:43:42.748Z,5.78
2022-12-20T21:46:11.628Z,5.72
2022-12-20T21:48:41.481Z,5.85
2022-12-20T21:51:11.308Z,5.66
2022-12-20T21:53:43.439Z,5.91
2022-12-20T21:56:11.144Z,5.88
2022-12-20T21:58:38.877Z,5.76
2022-12-20T22:01:08.018Z,5.75
2022-12-20T22:03:35.882Z,5.73
2022-12-20T22:06:05.592Z,5.76
2022-12-20T22:08:34.438Z,5.63
2022-12-20T22:11:03.478Z,5.70
2022-12-20T22:13:37.099Z,5.74
2022-12-20T22:16:08.419Z,5.69
2022-12-20T22:18:36.703Z,5.61
2022-12-20T22:21:06.348Z,5.75
2022-12-20T22:23:34.303Z,5.79
2022-12-20T22:26:03.277Z,5.81
2022-12-20T22:28:30.822Z,5.79
2022-12-20T22:30:58.644Z,5.70
2022-12-20T22:33:26.280Z,5.57
2022-12-20T22:35:53.790Z,5.73
2022-12-20T22:38:22.616Z,5.69
2022-12-20T22:40:50.219Z,5.67
2022-12-20T22:43:17.745Z,5.65
2022-12-20T22:45:45.461Z,5.72
2022-12-20T22:48:13.040Z,5.60
2022-12-20T22:50:40.630Z,5.75
2022-12-20T22:53:08.133Z,5.87
2022-12-20T22:55:37.001Z,5.86
2022-12-20T22:58:04.468Z,5.70
2022-12-20T23:00:33.824Z,5.81
2022-12-20T23:03:01.630Z,5.78
2022-12-20T23:05:29.238Z,5.89
2022-12-20T23:07:57.237Z,6.04
2022-12-20T23:10:42.407Z,6.02
2022-12-20T23:13:30.605Z,6.08
2022-12-20T23:15:58.374Z,6.06
2022-12-20T23:18:25.879Z,6.15
2022-12-20T23:21:12.080Z,6.07
2022-12-20T23:23:39.658Z,6.09
2022-12-20T23:26:11.397Z,6.03
2022-12-20T23:28:40.462Z,6.19
2022-12-20T23:31:08.986Z,6.32
2022-12-20T23:33:36.761Z,6.55
2022-12-20T23:36:07.129Z,6.50
2022-12-20T23:38:35.804Z,6.41
2022-12-20T23:41:07.616Z,6.29
2022-12-20T23:43:35.193Z,6.16
2022-12-20T23:46:06.116Z,6.16
2022-12-20T23:48:34.155Z,6.21
2022-12-20T23:51:01.688Z,6.42
2022-12-20T23:53:30.236Z,6.48
2022-12-20T23:56:00.327Z,6.32
2022-12-20T23:58:27.895Z,6.43
